עמוד ראשי
METAR-TAF:

METAR-TAF

שדות תעופה :

Imperial County Airport (Boley Field)

Imperial, קליפורניה, ארצות הברית

קו רוחב: 32-50-03N, קו אורך: 115-34-43W, גובה: 17מטר

תצפית מזג אוויר נוכחית

הדו"ח נערך לפני 1 שעות ו 16דקות, בשעה 10:53 UTC
רוח 3קשר מכיוון מערב/דרום-מערב
טמפרטורת 31 צלסיוס
לחות 66%
לחץ 1011 hPa
ראות: 16.1קילומטר
שמיים נקיים

METAR: KIPL 251053Z AUTO 25003KT 10SM CLR 31/24 A2985 RMK AO2 SLP110 T03110239

זמן: 05:09 (12:09 UTC)

תחזית

הדו"ח נערך לפני 29דקות, בשעה 11:40 UTC
תחזית בתוקף מ 25 ב 12 UTC עד 26 ב 12 UTC
רוח 4קשר עם כיוונים משתנים
ראות: 10קילומטר
מעט עננים בגובה 15000רגל
עננים פזורים בגובה 20000רגל
מ 25 ב 2000UTC
רוח 8קשר מכיוון דרום-מזרח
ראות: 10קילומטר
מעט עננים בגובה 20000רגל
מ 26 ב 0300UTC
רוח 12קשר מכיוון מערב/דרום-מערב
ראות: 10קילומטר
מעט עננים בגובה 20000רגל
מ 26 ב 0700UTC
רוח 8קשר מכיוון דרום-מזרח
ראות: 10קילומטר
מעט עננים בגובה 20000רגל

TAF: KIPL 251140Z 2512/2612 VRB04KT P6SM FEW150 SCT200 FM252000 13008KT P6SM FEW200 FM260300 25012KT P6SM FEW200 FM260700 13008KT P6SM FEW200

תצפיות ותחזיות מזג אוויר לגבי יותר מ- 4,000 שדות תעופה ברחבי העולם. דוחות METAR ו- TAF.

התחנות הזמינות מסומנות בנקודות צהובות ואדומות על גבי המפה.

העבר את העכבר לנקודה הצבעונית על מנת לראות את שם התחנה.

לאחר מכן, לחץ כדי לראות את תוכן ואת תחזיות מזג האוויר.

כדי לשנות את המפה: לחץ על הכפתורים הירוקים עם הפלוס השחור כדי להתקרב; על הכפתור הירוק עם המקף כדי להתרחק; או בחיצים הירוקים למפות סמוכות.


METAR-TAF: